This is the latest recevied weather packets stored in our database for station/object DO6MJ-1. If no packets are shown the sender has not sent any weather packets the latest 10 day(s).
| Time | Temp. | Humidity | Pressure | Rain* | Wind** | Luminosity | Snow |
|---|---|---|---|---|---|---|---|
| 1778191436 | 6.11° C | 89% | 1011.3 hPa | 0 mm | - | - | - |
| 1778190236 | 6.67° C | 88% | 1011.3 hPa | 0 mm | - | - | - |
| 1778189035 | 6.67° C | 88% | 1011.2 hPa | 0 mm | - | - | - |
| 1778187835 | 7.22° C | 87% | 1011.1 hPa | 0 mm | - | - | - |
| 1778186635 | 7.22° C | 86% | 1011 hPa | 0 mm | - | - | - |
| 1778185434 | 7.78° C | 85% | 1011 hPa | 0 mm | - | - | - |
| 1778184234 | 8.33° C | 83% | 1010.7 hPa | 0 mm | - | - | - |
| 1778183035 | 8.89° C | 81% | 1010.6 hPa | 0 mm | - | - | - |
| 1778181834 | 10° C | 80% | 1010.5 hPa | 0 mm | - | - | - |
| 1778180633 | 10.56° C | 80% | 1010.4 hPa | 0 mm | - | - | - |
| 1778179433 | 11.11° C | 78% | 1010.2 hPa | 0 mm | - | - | - |
| 1778178233 | 11.67° C | 76% | 1010.1 hPa | 0 mm | - | - | - |
| 1778177034 | 11.67° C | 74% | 1009.9 hPa | 0 mm | - | - | - |
| 1778175833 | 12.22° C | 73% | 1009.8 hPa | 0 mm | - | - | - |
| 1778174632 | 12.78° C | 72% | 1009.8 hPa | 0 mm | - | - | - |
| 1778173432 | 12.78° C | 72% | 1009.4 hPa | 0 mm | - | - | - |
| 1778172231 | 13.33° C | 72% | 1009.5 hPa | 0 mm | - | - | - |
| 1778171031 | 13.33° C | 73% | 1009.4 hPa | 0 mm | - | - | - |
| 1778169831 | 12.78° C | 74% | 1009.3 hPa | 0 mm | - | - | - |
| 1778168631 | 12.78° C | 73% | 1009.3 hPa | 0 mm | - | - | - |
| 1778167430 | 13.33° C | 73% | 1009.3 hPa | 0 mm | - | - | - |
| 1778166230 | 13.33° C | 74% | 1009.2 hPa | 0 mm | - | - | - |
| 1778165030 | 13.33° C | 76% | 1009.3 hPa | 0 mm | - | - | - |
| 1778163829 | 12.78° C | 80% | 1009.2 hPa | 0 mm | - | - | - |
| 1778162629 | 12.22° C | 83% | 1009.2 hPa | 0 mm | - | - | - |
* Rain latest hour (hover to see other rain measurements)
** Current wind speed in m/s (hover to see current wind gust speed)